Time,TemperatureF,DewpointF,PressureIn,WindDirection,WindDirectionDegrees,WindSpeedMPH,WindSpeedGustMPH,Humidity,HourlyPrecipIn,Conditions,Clouds,dailyrainin,SoftwareType,DateUTC
2013-08-25 00:00:00,51.9,49.6,30.39,SSW,213,0.0,0.0,92,0.00,CLR,,0.00,WeatherDisplay:10.37,2013-08-25 04:00:00,
2013-08-25 00:05:00,52.3,50.1,30.39,SSW,213,0.0,0.0,92,0.00,CLR,,0.00,WeatherDisplay:10.37,2013-08-25 04:05:00,
2013-08-25 00:10:00,52.9,50.7,30.39,SSW,213,0.0,0.0,92,0.00,CLR,,0.00,WeatherDisplay:10.37,2013-08-25 04:10:00,
2013-08-25 00:15:00,52.8,50.6,30.39,SSW,213,0.0,0.0,92,0.00,CLR,,0.00,WeatherDisplay:10.37,2013-08-25 04:15:00,
2013-08-25 00:20:00,52.4,50.2,30.38,SSW,213,0.0,0.0,92,0.00,CLR,,0.00,WeatherDisplay:10.37,2013-08-25 04:20:00,
2013-08-25 00:25:00,52.4,50.2,30.38,SSW,213,0.0,0.0,92,0.00,CLR,,0.00,WeatherDisplay:10.37,2013-08-25 04:25:00,
2013-08-25 00:30:00,53.3,51.0,30.38,SSW,213,0.0,0.0,92,0.00,CLR,,0.00,WeatherDisplay:10.37,2013-08-25 04:30:00,
2013-08-25 00:35:00,53.8,51.6,30.38,SSW,213,0.0,0.0,92,0.00,CLR,,0.00,WeatherDisplay:10.37,2013-08-25 04:35:00,
2013-08-25 00:40:00,53.3,51.0,30.38,SSW,213,0.0,0.0,92,0.00,CLR,,0.00,WeatherDisplay:10.37,2013-08-25 04:40:00,
2013-08-25 00:45:00,53.5,51.2,30.38,SSW,213,0.0,0.0,92,0.00,CLR,,0.00,WeatherDisplay:10.37,2013-08-25 04:45:00,
2013-08-25 00:50:00,52.5,50.3,30.38,SSW,213,0.0,0.0,92,0.00,CLR,,0.00,WeatherDisplay:10.37,2013-08-25 04:50:00,
2013-08-25 00:55:00,51.9,49.6,30.38,SSW,213,0.0,0.0,92,0.00,CLR,,0.00,WeatherDisplay:10.37,2013-08-25 04:55:00,
2013-08-25 01:00:00,52.4,50.1,30.38,SSW,213,0.0,0.0,92,0.00,CLR,,0.00,WeatherDisplay:10.37,2013-08-25 05:00:00,
2013-08-25 01:05:00,52.6,51.5,30.38,SSW,213,0.0,0.0,96,0.00,CLR,,0.00,WeatherDisplay:10.37,2013-08-25 05:05:00,
2013-08-25 01:10:00,52.2,51.1,30.38,SSW,213,0.0,0.0,96,0.00,CLR,,0.00,WeatherDisplay:10.37,2013-08-25 05:10:00,
2013-08-25 01:15:00,51.7,50.6,30.38,SSW,213,0.0,0.0,96,0.00,CLR,,0.00,WeatherDisplay:10.37,2013-08-25 05:15:00,
2013-08-25 01:20:00,52.2,51.1,30.38,SSW,213,0.0,0.0,96,0.00,CLR,,0.00,WeatherDisplay:10.37,2013-08-25 05:20:00,
2013-08-25 01:25:00,52.7,51.6,30.38,SSW,213,0.0,0.0,96,0.00,CLR,,0.00,WeatherDisplay:10.37,2013-08-25 05:25:00,
2013-08-25 01:35:00,51.0,49.9,30.38,SSW,213,0.0,0.0,96,0.00,CLR,,0.00,WeatherDisplay:10.37,2013-08-25 05:35:00,
2013-08-25 01:40:00,51.8,50.7,30.38,SSW,213,0.0,0.0,96,0.00,CLR,,0.00,WeatherDisplay:10.37,2013-08-25 05:40:00,
2013-08-25 01:45:00,50.6,49.5,30.38,SSW,213,0.0,0.0,96,0.00,CLR,,0.00,WeatherDisplay:10.37,2013-08-25 05:45:00,
2013-08-25 01:50:00,50.6,49.5,30.38,SSW,213,0.0,0.0,96,0.00,CLR,,0.00,WeatherDisplay:10.37,2013-08-25 05:50:00,
2013-08-25 01:55:00,50.3,49.2,30.37,SSW,213,0.0,0.0,96,0.00,CLR,,0.00,WeatherDisplay:10.37,2013-08-25 05:55:00,
2013-08-25 02:00:00,50.8,49.7,30.37,SSW,213,0.0,0.0,96,0.00,CLR,,0.00,WeatherDisplay:10.37,2013-08-25 06:00:00,
2013-08-25 02:05:00,51.5,50.4,30.37,SSW,213,0.0,0.0,96,0.00,CLR,,0.00,WeatherDisplay:10.37,2013-08-25 06:05:00,
2013-08-25 02:10:00,51.5,50.4,30.37,SSW,213,0.0,0.0,96,0.00,CLR,,0.00,WeatherDisplay:10.37,2013-08-25 06:10:00,
2013-08-25 02:15:00,51.2,51.2,30.36,SSW,213,0.0,0.0,100,0.00,FEW,,0.00,WeatherDisplay:10.37,2013-08-25 06:15:00,
2013-08-25 02:20:00,52.1,52.1,30.36,SSW,213,0.0,0.0,100,0.00,FEW,,0.00,WeatherDisplay:10.37,2013-08-25 06:20:00,
2013-08-25 02:25:00,51.1,51.1,30.36,SSW,213,0.0,0.0,100,0.00,FEW,,0.00,WeatherDisplay:10.37,2013-08-25 06:25:00,
2013-08-25 02:30:00,51.4,51.4,30.36,SSW,213,0.0,0.0,100,0.00,FEW,,0.00,WeatherDisplay:10.37,2013-08-25 06:30:00,
2013-08-25 02:35:00,50.6,50.6,30.37,SSW,213,0.0,0.0,100,0.00,FEW,,0.00,WeatherDisplay:10.37,2013-08-25 06:35:00,
2013-08-25 02:40:00,51.9,51.9,30.37,SSW,213,0.0,0.0,100,0.00,FEW,,0.00,WeatherDisplay:10.37,2013-08-25 06:40:00,
2013-08-25 02:50:00,51.6,51.6,30.36,SSW,213,0.0,0.0,100,0.00,FEW,,0.00,WeatherDisplay:10.37,2013-08-25 06:50:00,
2013-08-25 02:55:00,50.7,50.7,30.36,SSW,213,0.0,0.0,100,0.00,FEW,,0.00,WeatherDisplay:10.37,2013-08-25 06:55:00,
2013-08-25 03:00:00,51.4,51.4,30.36,SSW,213,0.0,0.0,100,0.00,FEW,,0.00,WeatherDisplay:10.37,2013-08-25 07:00:00,
2013-08-25 03:05:00,50.6,49.5,30.37,SSW,213,0.0,0.0,96,0.00,CLR,,0.00,WeatherDisplay:10.37,2013-08-25 07:05:00,
2013-08-25 03:10:00,49.7,48.6,30.37,SSW,213,0.0,0.0,96,0.00,CLR,,0.00,WeatherDisplay:10.37,2013-08-25 07:10:00,
2013-08-25 03:15:00,49.4,48.3,30.37,SSW,213,0.0,0.0,96,0.00,CLR,,0.00,WeatherDisplay:10.37,2013-08-25 07:15:00,
2013-08-25 03:20:00,49.5,48.4,30.37,SSW,213,0.0,0.0,96,0.00,CLR,,0.00,WeatherDisplay:10.37,2013-08-25 07:20:00,
2013-08-25 03:25:00,49.0,47.9,30.37,SSW,213,0.0,0.0,96,0.00,CLR,,0.00,WeatherDisplay:10.37,2013-08-25 07:25:00,
2013-08-25 03:30:00,49.9,48.8,30.37,SSW,213,0.0,0.0,96,0.00,CLR,,0.00,WeatherDisplay:10.37,2013-08-25 07:30:00,
2013-08-25 03:40:00,51.7,50.6,30.37,SSW,213,0.0,0.0,96,0.00,CLR,,0.00,WeatherDisplay:10.37,2013-08-25 07:40:00,
2013-08-25 03:45:00,50.6,49.5,30.38,SSW,213,0.0,0.0,96,0.00,CLR,,0.00,WeatherDisplay:10.37,2013-08-25 07:45:00,
2013-08-25 03:50:00,50.7,49.6,30.38,SSW,213,0.0,0.0,96,0.00,CLR,,0.00,WeatherDisplay:10.37,2013-08-25 07:50:00,
2013-08-25 03:55:00,48.6,47.5,30.38,SSW,213,0.0,0.0,96,0.00,CLR,,0.00,WeatherDisplay:10.37,2013-08-25 07:55:00,
2013-08-25 04:05:00,48.7,46.5,30.38,SSW,213,0.0,0.0,92,0.00,CLR,,0.00,WeatherDisplay:10.37,2013-08-25 08:05:00,
2013-08-25 04:10:00,49.6,47.4,30.38,SSW,213,0.0,0.0,92,0.00,CLR,,0.00,WeatherDisplay:10.37,2013-08-25 08:10:00,
2013-08-25 04:15:00,50.3,48.0,30.38,SSW,213,0.0,0.0,92,0.00,CLR,,0.00,WeatherDisplay:10.37,2013-08-25 08:15:00,
2013-08-25 04:20:00,50.8,48.5,30.38,SSW,213,0.0,0.0,92,0.00,CLR,,0.00,WeatherDisplay:10.37,2013-08-25 08:20:00,
2013-08-25 04:25:00,48.8,46.6,30.38,SSW,213,0.0,0.0,92,0.00,CLR,,0.00,WeatherDisplay:10.37,2013-08-25 08:25:00,
2013-08-25 04:30:00,49.0,46.8,30.39,SSW,213,0.0,0.0,92,0.00,CLR,,0.00,WeatherDisplay:10.37,2013-08-25 08:30:00,
2013-08-25 04:35:00,50.2,48.2,30.39,SSW,213,0.0,0.0,93,0.00,FEW,,0.00,WeatherDisplay:10.37,2013-08-25 08:35:00,
2013-08-25 04:40:00,50.6,48.7,30.39,SSW,213,0.0,0.0,93,0.00,FEW,,0.00,WeatherDisplay:10.37,2013-08-25 08:40:00,
2013-08-25 04:45:00,49.4,47.4,30.39,SSW,213,0.0,0.0,93,0.00,FEW,,0.00,WeatherDisplay:10.37,2013-08-25 08:45:00,
2013-08-25 04:50:00,48.8,46.9,30.39,SSW,213,0.0,0.0,93,0.00,FEW,,0.00,WeatherDisplay:10.37,2013-08-25 08:50:00,
2013-08-25 04:55:00,50.1,48.2,30.39,SSW,213,0.0,0.0,93,0.00,FEW,,0.00,WeatherDisplay:10.37,2013-08-25 08:55:00,
2013-08-25 05:00:00,50.9,48.9,30.39,SSW,213,0.0,0.0,93,0.00,FEW,,0.00,WeatherDisplay:10.37,2013-08-25 09:00:00,
2013-08-25 05:05:00,50.0,48.6,30.40,SSW,213,0.0,0.0,95,0.00,CLR,,0.00,WeatherDisplay:10.37,2013-08-25 09:05:00,
2013-08-25 05:10:00,49.7,48.3,30.40,SSW,213,0.0,0.0,95,0.00,CLR,,0.00,WeatherDisplay:10.37,2013-08-25 09:10:00,
2013-08-25 05:15:00,48.9,47.6,30.40,SSW,213,0.0,0.0,95,0.00,CLR,,0.00,WeatherDisplay:10.37,2013-08-25 09:15:00,
2013-08-25 05:20:00,48.9,47.5,30.40,SSW,213,0.0,0.0,95,0.00,CLR,,0.00,WeatherDisplay:10.37,2013-08-25 09:20:00,
2013-08-25 05:25:00,49.2,47.9,30.40,SSW,213,0.0,0.0,95,0.00,CLR,,0.00,WeatherDisplay:10.37,2013-08-25 09:25:00,
2013-08-25 05:30:00,48.6,47.2,30.40,SSW,213,0.0,0.0,95,0.00,CLR,,0.00,WeatherDisplay:10.37,2013-08-25 09:30:00,
2013-08-25 05:40:00,49.2,47.8,30.40,SSW,213,0.0,0.0,95,0.00,CLR,,0.00,WeatherDisplay:10.37,2013-08-25 09:40:00,
2013-08-25 05:45:00,49.9,48.5,30.40,SSW,213,0.0,0.0,95,0.00,CLR,,0.00,WeatherDisplay:10.37,2013-08-25 09:45:00,
2013-08-25 05:50:00,50.2,48.8,30.41,SSW,213,0.0,0.0,95,0.00,CLR,,0.00,WeatherDisplay:10.37,2013-08-25 09:50:00,
2013-08-25 05:55:00,50.1,48.7,30.41,SSW,213,0.0,0.0,95,0.00,CLR,,0.00,WeatherDisplay:10.37,2013-08-25 09:55:00,
2013-08-25 06:00:00,49.2,47.8,30.41,SSW,213,0.0,0.0,95,0.00,CLR,,0.00,WeatherDisplay:10.37,2013-08-25 10:00:00,
2013-08-25 06:05:00,48.2,47.2,30.41,SSW,213,0.0,0.0,96,0.00,CLR,,0.00,WeatherDisplay:10.37,2013-08-25 10:05:00,
2013-08-25 06:10:00,48.6,47.5,30.42,SSW,213,0.0,0.0,96,0.00,CLR,,0.00,WeatherDisplay:10.37,2013-08-25 10:10:00,
2013-08-25 06:15:00,47.6,46.5,30.42,SSW,213,0.0,0.0,96,0.00,CLR,,0.00,WeatherDisplay:10.37,2013-08-25 10:15:00,
2013-08-25 06:20:00,47.6,46.5,30.42,SSW,213,0.0,0.0,96,0.00,CLR,,0.00,WeatherDisplay:10.37,2013-08-25 10:20:00,
2013-08-25 06:25:00,49.3,48.2,30.42,SSW,213,0.0,0.0,96,0.00,CLR,,0.00,WeatherDisplay:10.37,2013-08-25 10:25:00,
2013-08-25 06:30:00,49.7,48.6,30.42,SSW,213,0.0,0.0,96,0.00,CLR,,0.00,WeatherDisplay:10.37,2013-08-25 10:30:00,
2013-08-25 06:35:00,50.1,49.0,30.42,SSW,213,0.0,0.0,96,0.00,CLR,,0.00,WeatherDisplay:10.37,2013-08-25 10:35:00,
2013-08-25 06:40:00,48.9,47.8,30.42,SSW,213,0.0,0.0,96,0.00,CLR,,0.00,WeatherDisplay:10.37,2013-08-25 10:40:00,
2013-08-25 06:45:00,48.8,47.7,30.42,SSW,213,0.0,0.0,96,0.00,CLR,,0.00,WeatherDisplay:10.37,2013-08-25 10:45:00,
2013-08-25 06:50:00,50.0,48.9,30.42,SSW,213,0.0,0.0,96,0.00,CLR,,0.00,WeatherDisplay:10.37,2013-08-25 10:50:00,
2013-08-25 06:55:00,50.0,48.9,30.42,SSW,213,0.0,0.0,96,0.00,CLR,,0.00,WeatherDisplay:10.37,2013-08-25 10:55:00,
2013-08-25 07:00:00,50.5,49.4,30.42,SSW,213,0.0,0.0,96,0.00,CLR,,0.00,WeatherDisplay:10.37,2013-08-25 11:00:00,
2013-08-25 07:05:00,50.6,48.4,30.42,SSW,213,0.0,0.0,92,0.00,CLR,,0.00,WeatherDisplay:10.37,2013-08-25 11:05:00,
2013-08-25 07:10:00,50.7,48.4,30.42,SSW,213,0.0,0.0,92,0.00,CLR,,0.00,WeatherDisplay:10.37,2013-08-25 11:10:00,
2013-08-25 07:15:00,50.3,48.1,30.42,SSW,213,0.0,0.0,92,0.00,CLR,,0.00,WeatherDisplay:10.37,2013-08-25 11:15:00,
2013-08-25 07:20:00,50.9,48.7,30.42,SSW,213,0.0,0.0,92,0.00,CLR,,0.00,WeatherDisplay:10.37,2013-08-25 11:20:00,
2013-08-25 07:25:00,51.2,49.0,30.42,SSW,213,0.0,0.0,92,0.00,CLR,,0.00,WeatherDisplay:10.37,2013-08-25 11:25:00,
2013-08-25 07:30:00,51.7,49.5,30.42,SSW,213,0.0,0.0,92,0.00,CLR,,0.00,WeatherDisplay:10.37,2013-08-25 11:30:00,
2013-08-25 07:35:00,51.5,49.2,30.42,SSW,213,0.0,0.0,92,0.00,CLR,,0.00,WeatherDisplay:10.37,2013-08-25 11:35:00,
2013-08-25 07:40:00,51.2,48.9,30.42,SSW,213,0.0,0.0,92,0.00,CLR,,0.00,WeatherDisplay:10.37,2013-08-25 11:40:00,
2013-08-25 07:45:00,50.9,48.6,30.42,SSW,213,0.0,0.0,92,0.00,CLR,,0.00,WeatherDisplay:10.37,2013-08-25 11:45:00,
2013-08-25 07:50:00,51.3,49.1,30.43,SSW,213,0.0,0.0,92,0.00,CLR,,0.00,WeatherDisplay:10.37,2013-08-25 11:50:00,
2013-08-25 07:55:00,51.7,49.5,30.42,SSW,213,0.0,0.0,92,0.00,CLR,,0.00,WeatherDisplay:10.37,2013-08-25 11:55:00,
2013-08-25 08:00:00,52.4,50.2,30.42,SSW,213,0.0,0.0,92,0.00,CLR,,0.00,WeatherDisplay:10.37,2013-08-25 12:00:00,
2013-08-25 08:05:00,53.2,49.1,30.42,SSW,213,0.0,0.0,86,0.00,CLR,,0.00,WeatherDisplay:10.37,2013-08-25 12:05:00,
2013-08-25 08:10:00,53.4,49.3,30.42,SSW,213,0.0,0.0,86,0.00,CLR,,0.00,WeatherDisplay:10.37,2013-08-25 12:10:00,
2013-08-25 08:15:00,53.8,49.7,30.42,SSW,213,0.0,0.0,86,0.00,CLR,,0.00,WeatherDisplay:10.37,2013-08-25 12:15:00,
2013-08-25 08:20:00,54.6,50.5,30.42,SSW,213,0.0,0.0,86,0.00,CLR,,0.00,WeatherDisplay:10.37,2013-08-25 12:20:00,
2013-08-25 08:25:00,54.5,50.4,30.42,SSW,213,0.0,0.0,86,0.00,CLR,,0.00,WeatherDisplay:10.37,2013-08-25 12:25:00,
2013-08-25 08:30:00,55.0,50.9,30.42,SSW,213,0.0,0.0,86,0.00,CLR,,0.00,WeatherDisplay:10.37,2013-08-25 12:30:00,
2013-08-25 08:40:00,56.4,52.3,30.42,SSW,213,0.0,0.0,86,0.00,CLR,,0.00,WeatherDisplay:10.37,2013-08-25 12:40:00,
2013-08-25 08:45:00,56.8,52.6,30.42,SSW,213,0.0,0.0,86,0.00,CLR,,0.00,WeatherDisplay:10.37,2013-08-25 12:45:00,
2013-08-25 08:50:00,57.3,53.1,30.42,SSW,213,0.0,0.0,86,0.00,CLR,,0.00,WeatherDisplay:10.37,2013-08-25 12:50:00,
2013-08-25 09:00:00,58.4,54.2,30.42,SSW,213,0.0,0.0,86,0.00,CLR,,0.00,WeatherDisplay:10.37,2013-08-25 13:00:00,
2013-08-25 09:05:00,59.0,50.0,30.42,SSW,213,0.0,0.0,72,0.00,CLR,,0.00,WeatherDisplay:10.37,2013-08-25 13:05:00,
2013-08-25 09:10:00,59.7,50.6,30.42,SSW,213,0.0,0.0,72,0.00,CLR,,0.00,WeatherDisplay:10.37,2013-08-25 13:10:00,
2013-08-25 09:15:00,60.2,51.2,30.42,SSW,213,0.0,0.0,72,0.00,CLR,,0.00,WeatherDisplay:10.37,2013-08-25 13:15:00,
2013-08-25 09:20:00,61.3,52.2,30.42,SSW,213,0.0,0.0,72,0.00,CLR,,0.00,WeatherDisplay:10.37,2013-08-25 13:20:00,
2013-08-25 09:25:00,61.7,52.6,30.42,SSW,213,0.0,0.0,72,0.00,CLR,,0.00,WeatherDisplay:10.37,2013-08-25 13:25:00,
2013-08-25 09:30:00,62.5,53.4,30.42,SSW,213,0.0,0.0,72,0.00,CLR,,0.00,WeatherDisplay:10.37,2013-08-25 13:30:00,
2013-08-25 09:35:00,63.8,54.6,30.42,SSW,213,0.0,0.0,72,0.00,CLR,,0.00,WeatherDisplay:10.37,2013-08-25 13:35:00,
2013-08-25 09:40:00,65.2,55.9,30.42,SSW,213,0.0,0.0,72,0.00,CLR,,0.00,WeatherDisplay:10.37,2013-08-25 13:40:00,
2013-08-25 09:45:00,64.9,55.7,30.42,SSW,213,0.0,0.0,72,0.00,CLR,,0.00,WeatherDisplay:10.37,2013-08-25 13:45:00,
2013-08-25 09:50:00,65.4,56.1,30.42,SSW,213,0.0,0.0,72,0.00,CLR,,0.00,WeatherDisplay:10.37,2013-08-25 13:50:00,
2013-08-25 09:55:00,65.9,56.6,30.42,SSW,213,0.0,0.0,72,0.00,CLR,,0.00,WeatherDisplay:10.37,2013-08-25 13:55:00,
2013-08-25 10:00:00,66.8,57.4,30.41,SSW,213,0.0,0.0,72,0.00,CLR,,0.00,WeatherDisplay:10.37,2013-08-25 14:00:00,
2013-08-25 10:05:00,66.5,53.6,30.41,SSW,213,0.0,0.0,63,0.00,CLR,,0.00,WeatherDisplay:10.37,2013-08-25 14:05:00,
2013-08-25 10:10:00,67.3,54.3,30.41,SSW,213,0.0,0.0,63,0.00,CLR,,0.00,WeatherDisplay:10.37,2013-08-25 14:10:00,
2013-08-25 10:15:00,67.3,54.2,30.41,SSW,213,0.0,0.0,63,0.00,CLR,,0.00,WeatherDisplay:10.37,2013-08-25 14:15:00,
2013-08-25 10:20:00,67.9,54.9,30.41,SSW,213,0.0,0.0,63,0.00,CLR,,0.00,WeatherDisplay:10.37,2013-08-25 14:20:00,
2013-08-25 10:30:00,69.0,55.8,30.40,SSW,213,0.0,0.0,63,0.00,CLR,,0.00,WeatherDisplay:10.37,2013-08-25 14:30:00,
2013-08-25 10:35:00,70.2,57.1,30.40,SSW,213,0.0,0.0,63,0.00,CLR,,0.00,WeatherDisplay:10.37,2013-08-25 14:35:00,
2013-08-25 10:40:00,70.8,57.6,30.40,SSW,213,0.0,0.0,63,0.00,CLR,,0.00,WeatherDisplay:10.37,2013-08-25 14:40:00,
2013-08-25 10:45:00,70.5,57.3,30.40,SSW,213,0.0,0.0,63,0.00,CLR,,0.00,WeatherDisplay:10.37,2013-08-25 14:45:00,
2013-08-25 10:50:00,71.7,58.5,30.40,SSW,213,0.0,0.0,63,0.00,CLR,,0.00,WeatherDisplay:10.37,2013-08-25 14:50:00,
2013-08-25 10:55:00,72.1,58.8,30.40,SSW,213,0.0,0.0,63,0.00,CLR,,0.00,WeatherDisplay:10.37,2013-08-25 14:55:00,
2013-08-25 11:00:00,71.6,58.3,30.40,SSW,213,0.0,0.0,63,0.00,CLR,,0.00,WeatherDisplay:10.37,2013-08-25 15:00:00,
2013-08-25 11:05:00,71.5,51.3,30.39,SSW,213,0.0,0.0,49,0.00,CLR,,0.00,WeatherDisplay:10.37,2013-08-25 15:05:00,
2013-08-25 11:10:00,72.0,51.8,30.39,SSW,213,0.0,0.0,49,0.00,CLR,,0.00,WeatherDisplay:10.37,2013-08-25 15:10:00,
2013-08-25 11:15:00,72.3,52.1,30.39,SSW,213,0.0,0.0,49,0.00,CLR,,0.00,WeatherDisplay:10.37,2013-08-25 15:15:00,
2013-08-25 11:20:00,72.7,52.5,30.38,SW,233,0.0,7.0,49,0.00,CLR,,0.00,WeatherDisplay:10.37,2013-08-25 15:20:00,
2013-08-25 11:30:00,73.7,53.3,30.38,WSW,251,0.0,0.0,49,0.00,CLR,,0.00,WeatherDisplay:10.37,2013-08-25 15:30:00,
2013-08-25 11:35:00,74.1,53.7,30.38,WSW,237,0.0,3.0,49,0.00,CLR,,0.00,WeatherDisplay:10.37,2013-08-25 15:35:00,
2013-08-25 11:40:00,73.7,53.3,30.37,SW,220,0.0,3.0,49,0.00,CLR,,0.00,WeatherDisplay:10.37,2013-08-25 15:40:00,
2013-08-25 11:45:00,73.7,53.3,30.37,SW,217,0.0,0.0,49,0.00,CLR,,0.00,WeatherDisplay:10.37,2013-08-25 15:45:00,
2013-08-25 11:50:00,74.0,53.7,30.36,SW,235,0.0,5.0,49,0.00,CLR,,0.00,WeatherDisplay:10.37,2013-08-25 15:50:00,
2013-08-25 11:55:00,74.4,54.0,30.36,WSW,251,0.0,3.0,49,0.00,CLR,,0.00,WeatherDisplay:10.37,2013-08-25 15:55:00,
2013-08-25 12:00:00,74.7,54.3,30.36,WSW,247,3.0,6.0,49,0.00,CLR,,0.00,WeatherDisplay:10.37,2013-08-25 16:00:00,
2013-08-25 12:05:00,75.1,51.7,30.36,WSW,238,0.0,0.0,44,0.00,CLR,,0.00,WeatherDisplay:10.37,2013-08-25 16:05:00,
2013-08-25 12:10:00,74.9,51.5,30.35,WSW,249,0.0,6.0,44,0.00,CLR,,0.00,WeatherDisplay:10.37,2013-08-25 16:10:00,
2013-08-25 12:15:00,74.6,51.2,30.35,West,269,0.0,0.0,44,0.00,CLR,,0.00,WeatherDisplay:10.37,2013-08-25 16:15:00,
2013-08-25 12:20:00,74.8,51.4,30.35,West,272,0.0,0.0,44,0.00,CLR,,0.00,WeatherDisplay:10.37,2013-08-25 16:20:00,
2013-08-25 12:25:00,75.2,51.8,30.35,West,265,1.0,6.0,44,0.00,CLR,,0.00,WeatherDisplay:10.37,2013-08-25 16:25:00,
2013-08-25 12:30:00,75.2,51.8,30.35,WSW,246,0.0,3.0,44,0.00,CLR,,0.00,WeatherDisplay:10.37,2013-08-25 16:30:00,
2013-08-25 12:35:00,75.4,51.9,30.34,South,187,0.0,3.0,44,0.00,CLR,,0.00,WeatherDisplay:10.37,2013-08-25 16:35:00,
2013-08-25 12:40:00,75.4,52.0,30.34,SSE,158,0.0,0.0,44,0.00,CLR,,0.00,WeatherDisplay:10.37,2013-08-25 16:40:00,
2013-08-25 12:45:00,76.2,52.7,30.34,South,174,1.0,5.0,44,0.00,CLR,,0.00,WeatherDisplay:10.37,2013-08-25 16:45:00,
2013-08-25 12:50:00,76.6,53.0,30.34,SSW,212,1.0,5.0,44,0.00,CLR,,0.00,WeatherDisplay:10.37,2013-08-25 16:50:00,
2013-08-25 12:55:00,76.7,53.2,30.34,ENE,74,0.0,0.0,44,0.00,CLR,,0.00,WeatherDisplay:10.37,2013-08-25 16:55:00,
2013-08-25 13:00:00,76.1,52.6,30.34,East,97,0.0,5.0,44,0.00,CLR,,0.00,WeatherDisplay:10.37,2013-08-25 17:00:00,
2013-08-25 13:05:00,77.3,51.7,30.34,SE,133,0.0,3.0,41,0.00,CLR,,0.00,WeatherDisplay:10.37,2013-08-25 17:05:00,
2013-08-25 13:10:00,77.6,52.1,30.34,SW,226,1.0,6.0,41,0.00,CLR,,0.00,WeatherDisplay:10.37,2013-08-25 17:10:00,
2013-08-25 13:15:00,76.9,51.4,30.33,SSW,204,0.0,0.0,41,0.00,CLR,,0.00,WeatherDisplay:10.37,2013-08-25 17:15:00,
2013-08-25 13:20:00,77.4,51.8,30.33,SSE,160,0.0,0.0,41,0.00,CLR,,0.00,WeatherDisplay:10.37,2013-08-25 17:20:00,
2013-08-25 13:25:00,77.9,52.3,30.33,SSE,160,0.0,0.0,41,0.00,CLR,,0.00,WeatherDisplay:10.37,2013-08-25 17:25:00,
2013-08-25 13:30:00,76.8,51.3,30.34,SSE,160,0.0,0.0,41,0.00,CLR,,0.00,WeatherDisplay:10.37,2013-08-25 17:30:00,
2013-08-25 13:35:00,77.7,52.2,30.33,ESE,108,0.0,3.0,41,0.00,CLR,,0.00,WeatherDisplay:10.37,2013-08-25 17:35:00,
2013-08-25 13:40:00,77.8,52.2,30.33,ENE,72,0.0,3.0,41,0.00,CLR,,0.00,WeatherDisplay:10.37,2013-08-25 17:40:00,
2013-08-25 13:45:00,77.8,52.2,30.33,ENE,72,0.0,0.0,41,0.00,CLR,,0.00,WeatherDisplay:10.37,2013-08-25 17:45:00,
2013-08-25 13:50:00,77.3,51.8,30.33,ESE,113,0.0,5.0,41,0.00,CLR,,0.00,WeatherDisplay:10.37,2013-08-25 17:50:00,
2013-08-25 13:55:00,77.6,52.0,30.33,SSW,196,0.0,0.0,41,0.00,CLR,,0.00,WeatherDisplay:10.37,2013-08-25 17:55:00,
2013-08-25 14:00:00,77.7,52.2,30.33,SW,220,0.0,2.0,41,0.00,CLR,,0.00,WeatherDisplay:10.37,2013-08-25 18:00:00,
2013-08-25 14:05:00,78.4,49.3,30.33,WSW,254,0.0,5.0,36,0.00,CLR,,0.00,WeatherDisplay:10.37,2013-08-25 18:05:00,
2013-08-25 14:10:00,77.9,48.8,30.32,SW,229,0.0,5.0,36,0.00,CLR,,0.00,WeatherDisplay:10.37,2013-08-25 18:10:00,
2013-08-25 14:15:00,79.2,49.9,30.32,SSW,199,0.0,6.0,36,0.00,CLR,,0.00,WeatherDisplay:10.37,2013-08-25 18:15:00,
2013-08-25 14:25:00,78.4,49.2,30.32,SSW,208,1.0,6.0,36,0.00,CLR,,0.00,WeatherDisplay:10.37,2013-08-25 18:25:00,
2013-08-25 14:30:00,78.3,49.1,30.32,South,186,2.0,10.0,36,0.00,CLR,,0.00,WeatherDisplay:10.37,2013-08-25 18:30:00,
2013-08-25 14:35:00,79.0,49.7,30.32,SSE,156,0.0,0.0,36,0.00,CLR,,0.00,WeatherDisplay:10.37,2013-08-25 18:35:00,
2013-08-25 14:40:00,78.5,49.4,30.32,SE,145,0.0,2.0,36,0.00,CLR,,0.00,WeatherDisplay:10.37,2013-08-25 18:40:00,
2013-08-25 14:45:00,78.8,49.6,30.32,SE,145,0.0,3.0,36,0.00,CLR,,0.00,WeatherDisplay:10.37,2013-08-25 18:45:00,
2013-08-25 14:50:00,79.4,50.1,30.31,SE,145,0.0,2.0,36,0.00,CLR,,0.00,WeatherDisplay:10.37,2013-08-25 18:50:00,
2013-08-25 14:55:00,78.5,49.3,30.30,SSE,163,2.0,7.0,36,0.00,CLR,,0.00,WeatherDisplay:10.37,2013-08-25 18:55:00,
2013-08-25 15:00:00,78.9,49.7,30.30,South,181,0.0,3.0,36,0.00,CLR,,0.00,WeatherDisplay:10.37,2013-08-25 19:00:00,
2013-08-25 15:05:00,79.7,44.7,30.30,SSW,197,0.0,0.0,29,0.00,CLR,,0.00,WeatherDisplay:10.37,2013-08-25 19:05:00,
2013-08-25 15:10:00,78.9,44.0,30.30,SSW,203,0.0,3.0,29,0.00,CLR,,0.00,WeatherDisplay:10.37,2013-08-25 19:10:00,
2013-08-25 15:15:00,78.8,43.9,30.29,SW,227,0.0,6.0,29,0.00,CLR,,0.00,WeatherDisplay:10.37,2013-08-25 19:15:00,
2013-08-25 15:20:00,79.9,44.8,30.29,WNW,287,0.0,0.0,29,0.00,CLR,,0.00,WeatherDisplay:10.37,2013-08-25 19:20:00,
2013-08-25 15:25:00,79.9,44.8,30.29,WNW,301,0.0,0.0,29,0.00,CLR,,0.00,WeatherDisplay:10.37,2013-08-25 19:25:00,
2013-08-25 15:30:00,79.7,44.6,30.29,WNW,301,0.0,0.0,29,0.00,CLR,,0.00,WeatherDisplay:10.37,2013-08-25 19:30:00,
2013-08-25 15:35:00,79.2,44.2,30.29,West,275,1.0,8.0,29,0.00,CLR,,0.00,WeatherDisplay:10.37,2013-08-25 19:35:00,
2013-08-25 15:40:00,78.4,43.5,30.28,WSW,241,3.0,6.0,29,0.00,CLR,,0.00,WeatherDisplay:10.37,2013-08-25 19:40:00,
2013-08-25 15:45:00,78.7,43.7,30.28,SW,223,0.0,0.0,29,0.00,CLR,,0.00,WeatherDisplay:10.37,2013-08-25 19:45:00,
2013-08-25 15:50:00,78.2,43.3,30.28,WSW,237,1.0,5.0,29,0.00,CLR,,0.00,WeatherDisplay:10.37,2013-08-25 19:50:00,
2013-08-25 16:00:00,77.9,43.1,30.28,SSE,158,0.0,0.0,29,0.00,CLR,,0.00,WeatherDisplay:10.37,2013-08-25 20:00:00,
2013-08-25 16:05:00,78.2,44.2,30.27,SW,215,0.0,6.0,30,0.00,CLR,,0.00,WeatherDisplay:10.37,2013-08-25 20:05:00,
2013-08-25 16:10:00,77.8,43.8,30.27,West,274,0.0,0.0,30,0.00,CLR,,0.00,WeatherDisplay:10.37,2013-08-25 20:10:00,
2013-08-25 16:15:00,77.2,43.3,30.27,West,275,0.0,3.0,30,0.00,CLR,,0.00,WeatherDisplay:10.37,2013-08-25 20:15:00,
2013-08-25 16:20:00,76.1,42.4,30.27,West,275,0.0,0.0,30,0.00,CLR,,0.00,WeatherDisplay:10.37,2013-08-25 20:20:00,
2013-08-25 16:25:00,76.2,42.5,30.27,WSW,245,0.0,6.0,30,0.00,CLR,,0.00,WeatherDisplay:10.37,2013-08-25 20:25:00,
2013-08-25 16:30:00,75.4,41.8,30.27,SW,219,0.0,3.0,30,0.00,CLR,,0.00,WeatherDisplay:10.37,2013-08-25 20:30:00,
2013-08-25 16:35:00,74.7,41.2,30.27,SW,215,0.0,0.0,30,0.00,CLR,,0.00,WeatherDisplay:10.37,2013-08-25 20:35:00,
2013-08-25 16:40:00,75.6,42.0,30.26,SW,215,0.0,0.0,30,0.00,CLR,,0.00,WeatherDisplay:10.37,2013-08-25 20:40:00,
2013-08-25 16:45:00,75.0,41.5,30.26,SW,215,0.0,0.0,30,0.00,CLR,,0.00,WeatherDisplay:10.37,2013-08-25 20:45:00,
2013-08-25 16:50:00,75.2,41.6,30.26,WSW,237,1.0,5.0,30,0.00,CLR,,0.00,WeatherDisplay:10.37,2013-08-25 20:50:00,
2013-08-25 16:55:00,74.6,41.1,30.26,WNW,294,0.0,5.0,30,0.00,CLR,,0.00,WeatherDisplay:10.37,2013-08-25 20:55:00,
2013-08-25 17:00:00,74.4,40.9,30.25,WNW,294,1.0,6.0,30,0.00,CLR,,0.00,WeatherDisplay:10.37,2013-08-25 21:00:00,
2013-08-25 17:05:00,74.3,45.6,30.25,WNW,291,0.0,3.0,36,0.00,CLR,,0.00,WeatherDisplay:10.37,2013-08-25 21:05:00,
2013-08-25 17:10:00,73.8,45.2,30.25,WNW,289,0.0,0.0,36,0.00,CLR,,0.00,WeatherDisplay:10.37,2013-08-25 21:10:00,
2013-08-25 17:15:00,73.3,44.7,30.25,WNW,288,0.0,3.0,36,0.00,CLR,,0.00,WeatherDisplay:10.37,2013-08-25 21:15:00,
2013-08-25 17:20:00,73.0,44.5,30.25,WNW,288,0.0,0.0,36,0.00,CLR,,0.00,WeatherDisplay:10.37,2013-08-25 21:20:00,
2013-08-25 17:25:00,72.8,44.3,30.25,WNW,288,0.0,0.0,36,0.00,CLR,,0.00,WeatherDisplay:10.37,2013-08-25 21:25:00,
2013-08-25 17:30:00,73.4,44.8,30.25,WNW,288,0.0,0.0,36,0.00,CLR,,0.00,WeatherDisplay:10.37,2013-08-25 21:30:00,
2013-08-25 17:40:00,72.6,44.1,30.25,WNW,292,1.0,5.0,36,0.00,CLR,,0.00,WeatherDisplay:10.37,2013-08-25 21:40:00,
2013-08-25 17:45:00,72.2,43.7,30.25,WNW,298,0.0,0.0,36,0.00,CLR,,0.00,WeatherDisplay:10.37,2013-08-25 21:45:00,
2013-08-25 17:50:00,71.7,43.3,30.24,WNW,301,0.0,0.0,36,0.00,CLR,,0.00,WeatherDisplay:10.37,2013-08-25 21:50:00,
2013-08-25 18:00:00,71.3,43.0,30.24,WNW,301,0.0,0.0,36,0.00,CLR,,0.00,WeatherDisplay:10.37,2013-08-25 22:00:00,
2013-08-25 18:05:00,70.9,46.7,30.24,WNW,301,0.0,0.0,42,0.00,FEW,,0.00,WeatherDisplay:10.37,2013-08-25 22:05:00,
2013-08-25 18:10:00,70.5,46.3,30.24,WNW,301,0.0,0.0,42,0.00,FEW,,0.00,WeatherDisplay:10.37,2013-08-25 22:10:00,
2013-08-25 18:15:00,70.3,46.1,30.24,WNW,301,0.0,0.0,42,0.00,FEW,,0.00,WeatherDisplay:10.37,2013-08-25 22:15:00,
2013-08-25 18:20:00,70.1,45.9,30.23,WNW,301,0.0,0.0,42,0.00,FEW,,0.00,WeatherDisplay:10.37,2013-08-25 22:20:00,
2013-08-25 18:30:00,69.5,45.4,30.23,WNW,301,0.0,0.0,42,0.00,FEW,,0.00,WeatherDisplay:10.37,2013-08-25 22:30:00,
2013-08-25 18:40:00,69.3,45.2,30.23,WNW,301,0.0,0.0,42,0.00,FEW,,0.00,WeatherDisplay:10.37,2013-08-25 22:40:00,
2013-08-25 18:45:00,69.0,44.9,30.23,WNW,301,0.0,0.0,42,0.00,FEW,,0.00,WeatherDisplay:10.37,2013-08-25 22:45:00,
2013-08-25 18:50:00,68.6,44.6,30.23,WNW,301,0.0,0.0,42,0.00,FEW,,0.00,WeatherDisplay:10.37,2013-08-25 22:50:00,
2013-08-25 19:00:00,68.2,44.2,30.23,WNW,301,0.0,0.0,42,0.00,FEW,,0.00,WeatherDisplay:10.37,2013-08-25 23:00:00,
2013-08-25 19:05:00,68.0,49.2,30.23,WNW,301,0.0,0.0,51,0.00,CLR,,0.00,WeatherDisplay:10.37,2013-08-25 23:05:00,
2013-08-25 19:10:00,67.4,48.6,30.23,WNW,301,0.0,0.0,51,0.00,CLR,,0.00,WeatherDisplay:10.37,2013-08-25 23:10:00,
2013-08-25 19:15:00,67.0,48.3,30.23,WNW,301,0.0,0.0,51,0.00,CLR,,0.00,WeatherDisplay:10.37,2013-08-25 23:15:00,
2013-08-25 19:20:00,66.4,47.8,30.23,WNW,301,0.0,0.0,51,0.00,CLR,,0.00,WeatherDisplay:10.37,2013-08-25 23:20:00,
2013-08-25 19:25:00,66.2,47.5,30.23,WNW,301,0.0,0.0,51,0.00,CLR,,0.00,WeatherDisplay:10.37,2013-08-25 23:25:00,
2013-08-25 19:30:00,66.0,47.3,30.23,WNW,301,0.0,0.0,51,0.00,CLR,,0.00,WeatherDisplay:10.37,2013-08-25 23:30:00,
2013-08-25 19:35:00,65.8,47.1,30.24,WNW,301,0.0,0.0,51,0.00,CLR,,0.00,WeatherDisplay:10.37,2013-08-25 23:35:00,
2013-08-25 19:40:00,65.6,46.9,30.23,WNW,301,0.0,0.0,51,0.00,CLR,,0.00,WeatherDisplay:10.37,2013-08-25 23:40:00,
2013-08-25 19:45:00,65.1,46.5,30.23,WNW,301,0.0,0.0,51,0.00,CLR,,0.00,WeatherDisplay:10.37,2013-08-25 23:45:00,
2013-08-25 19:50:00,65.0,46.4,30.23,WNW,301,0.0,0.0,51,0.00,CLR,,0.00,WeatherDisplay:10.37,2013-08-25 23:50:00,
2013-08-25 20:00:00,65.1,46.5,30.23,WNW,301,0.0,0.0,51,0.00,CLR,,0.00,WeatherDisplay:10.37,2013-08-26 00:00:00,
2013-08-25 20:05:00,64.9,52.8,30.23,WNW,301,0.0,0.0,65,0.00,CLR,,0.00,WeatherDisplay:10.37,2013-08-26 00:05:00,
2013-08-25 20:10:00,64.6,52.6,30.23,WNW,301,0.0,0.0,65,0.00,CLR,,0.00,WeatherDisplay:10.37,2013-08-26 00:10:00,
2013-08-25 20:15:00,64.7,52.7,30.23,WNW,301,0.0,0.0,65,0.00,CLR,,0.00,WeatherDisplay:10.37,2013-08-26 00:15:00,
2013-08-25 20:20:00,64.2,52.2,30.23,WNW,301,0.0,0.0,65,0.00,CLR,,0.00,WeatherDisplay:10.37,2013-08-26 00:20:00,
2013-08-25 20:25:00,64.1,52.1,30.23,WNW,301,0.0,0.0,65,0.00,CLR,,0.00,WeatherDisplay:10.37,2013-08-26 00:25:00,
2013-08-25 20:30:00,64.0,52.0,30.23,WNW,301,0.0,0.0,65,0.00,CLR,,0.00,WeatherDisplay:10.37,2013-08-26 00:30:00,
2013-08-25 20:35:00,64.4,52.4,30.23,WNW,301,0.0,0.0,65,0.00,CLR,,0.00,WeatherDisplay:10.37,2013-08-26 00:35:00,
2013-08-25 20:40:00,64.6,52.5,30.23,WNW,301,0.0,0.0,65,0.00,CLR,,0.00,WeatherDisplay:10.37,2013-08-26 00:40:00,
2013-08-25 20:45:00,64.3,52.3,30.23,WNW,301,0.0,0.0,65,0.00,CLR,,0.00,WeatherDisplay:10.37,2013-08-26 00:45:00,
2013-08-25 20:50:00,64.1,52.1,30.23,WNW,301,0.0,0.0,65,0.00,CLR,,0.00,WeatherDisplay:10.37,2013-08-26 00:50:00,
2013-08-25 20:55:00,63.5,51.5,30.23,WNW,301,0.0,0.0,65,0.00,CLR,,0.00,WeatherDisplay:10.37,2013-08-26 00:55:00,
2013-08-25 21:00:00,63.6,51.6,30.23,WNW,301,0.0,0.0,65,0.00,CLR,,0.00,WeatherDisplay:10.37,2013-08-26 01:00:00,
2013-08-25 21:05:00,63.2,58.0,30.23,WNW,301,0.0,0.0,83,0.00,CLR,,0.00,WeatherDisplay:10.37,2013-08-26 01:05:00,
2013-08-25 21:10:00,63.6,58.4,30.22,WNW,301,0.0,0.0,83,0.00,CLR,,0.00,WeatherDisplay:10.37,2013-08-26 01:10:00,
2013-08-25 21:15:00,63.8,58.5,30.22,WNW,301,0.0,0.0,83,0.00,CLR,,0.00,WeatherDisplay:10.37,2013-08-26 01:15:00,
2013-08-25 21:20:00,63.0,57.8,30.22,WNW,301,0.0,0.0,83,0.00,CLR,,0.00,WeatherDisplay:10.37,2013-08-26 01:20:00,
2013-08-25 21:30:00,62.8,57.5,30.22,WNW,301,0.0,0.0,83,0.00,CLR,,0.00,WeatherDisplay:10.37,2013-08-26 01:30:00,
2013-08-25 21:35:00,62.5,57.3,30.22,WNW,301,0.0,0.0,83,0.00,CLR,,0.00,WeatherDisplay:10.37,2013-08-26 01:35:00,
2013-08-25 21:40:00,62.5,57.3,30.22,WNW,301,0.0,0.0,83,0.00,CLR,,0.00,WeatherDisplay:10.37,2013-08-26 01:40:00,
2013-08-25 21:45:00,62.5,57.3,30.22,WNW,301,0.0,0.0,83,0.00,CLR,,0.00,WeatherDisplay:10.37,2013-08-26 01:45:00,
2013-08-25 21:50:00,62.3,57.1,30.22,WNW,301,0.0,0.0,83,0.00,CLR,,0.00,WeatherDisplay:10.37,2013-08-26 01:50:00,
2013-08-25 21:55:00,62.6,57.4,30.23,WNW,301,0.0,0.0,83,0.00,CLR,,0.00,WeatherDisplay:10.37,2013-08-26 01:55:00,
2013-08-25 22:00:00,62.3,57.1,30.23,WNW,301,0.0,0.0,83,0.00,CLR,,0.00,WeatherDisplay:10.37,2013-08-26 02:00:00,
2013-08-25 22:05:00,62.0,55.7,30.23,WNW,301,0.0,0.0,80,0.00,CLR,,0.00,WeatherDisplay:10.37,2013-08-26 02:05:00,
2013-08-25 22:10:00,61.6,55.4,30.23,WNW,301,0.0,0.0,80,0.00,CLR,,0.00,WeatherDisplay:10.37,2013-08-26 02:10:00,
2013-08-25 22:15:00,62.0,55.7,30.22,WNW,301,0.0,0.0,80,0.00,CLR,,0.00,WeatherDisplay:10.37,2013-08-26 02:15:00,
2013-08-25 22:20:00,62.3,56.1,30.23,WNW,301,0.0,0.0,80,0.00,CLR,,0.00,WeatherDisplay:10.37,2013-08-26 02:20:00,
2013-08-25 22:30:00,62.6,56.4,30.23,WNW,301,0.0,0.0,80,0.00,CLR,,0.00,WeatherDisplay:10.37,2013-08-26 02:30:00,
2013-08-25 22:35:00,62.2,56.0,30.23,WNW,301,0.0,0.0,80,0.00,CLR,,0.00,WeatherDisplay:10.37,2013-08-26 02:35:00,
2013-08-25 22:40:00,61.8,55.6,30.23,WNW,301,0.0,0.0,80,0.00,CLR,,0.00,WeatherDisplay:10.37,2013-08-26 02:40:00,
2013-08-25 22:45:00,62.6,56.3,30.22,WNW,301,0.0,0.0,80,0.00,CLR,,0.00,WeatherDisplay:10.37,2013-08-26 02:45:00,
2013-08-25 22:50:00,62.2,56.0,30.22,WNW,301,0.0,0.0,80,0.00,CLR,,0.00,WeatherDisplay:10.37,2013-08-26 02:50:00,
2013-08-25 22:55:00,61.6,55.4,30.22,WNW,301,0.0,0.0,80,0.00,CLR,,0.00,WeatherDisplay:10.37,2013-08-26 02:55:00,
2013-08-25 23:00:00,61.5,55.3,30.22,WNW,301,0.0,0.0,80,0.00,CLR,,0.00,WeatherDisplay:10.37,2013-08-26 03:00:00,
2013-08-25 23:05:00,61.6,57.4,30.22,WNW,301,0.0,0.0,86,0.00,CLR,,0.00,WeatherDisplay:10.37,2013-08-26 03:05:00,
2013-08-25 23:10:00,61.5,57.3,30.22,WNW,301,0.0,0.0,86,0.00,CLR,,0.00,WeatherDisplay:10.37,2013-08-26 03:10:00,
2013-08-25 23:15:00,61.5,57.3,30.21,WNW,301,0.0,0.0,86,0.00,CLR,,0.00,WeatherDisplay:10.37,2013-08-26 03:15:00,
2013-08-25 23:20:00,61.5,57.3,30.21,WNW,301,0.0,0.0,86,0.00,CLR,,0.00,WeatherDisplay:10.37,2013-08-26 03:20:00,
2013-08-25 23:25:00,61.6,57.4,30.21,WNW,301,0.0,0.0,86,0.00,CLR,,0.00,WeatherDisplay:10.37,2013-08-26 03:25:00,
2013-08-25 23:30:00,61.6,57.3,30.21,WNW,301,0.0,0.0,86,0.00,CLR,,0.00,WeatherDisplay:10.37,2013-08-26 03:30:00,
2013-08-25 23:35:00,61.7,57.4,30.21,WNW,301,0.0,0.0,86,0.00,CLR,,0.00,WeatherDisplay:10.37,2013-08-26 03:35:00,
2013-08-25 23:40:00,61.5,57.3,30.21,WNW,301,0.0,0.0,86,0.00,CLR,,0.00,WeatherDisplay:10.37,2013-08-26 03:40:00,
2013-08-25 23:45:00,61.4,57.2,30.21,WNW,301,0.0,0.0,86,0.00,CLR,,0.00,WeatherDisplay:10.37,2013-08-26 03:45:00,
2013-08-25 23:50:00,61.4,57.2,30.21,WNW,301,0.0,0.0,86,0.00,CLR,,0.00,WeatherDisplay:10.37,2013-08-26 03:50:00,
2013-08-25 23:55:00,61.4,57.1,30.21,WNW,301,0.0,0.0,86,0.00,CLR,,0.00,WeatherDisplay:10.37,2013-08-26 03:55:00,